MSR917 OMAA-HECA
Flight info
| Callsign | MSR917 |
|---|---|
| Flight time | N/A |
| Altitude | 34000 |
| Route | BOSEV1K BOSEV N563 ALPOB L768 VATIM L550 NOVPA N697 MENLI |
| Aircraft | B738/M-S/S |
Departure
| Time | 2026-04-27 11:49 |
|---|---|
| Airport | Zayed International Airport (OMAA) |
Arrival
| Time | N/A |
|---|---|
| Airport | Cairo International Airport (HECA) |
| Time | Latitude | Longitude | Altitude | Speed | Heading |
|---|---|---|---|---|---|
| 2026-04-27 11:34 | 24.42960 | 54.64670 | 96 ft | 0 kts | 167° |
| 2026-04-27 11:37 | 24.42973 | 54.64666 | 96 ft | 2 kts | 169° |
| 2026-04-27 11:38 | 24.42989 | 54.64664 | 96 ft | 2 kts | 171° |
| 2026-04-27 11:38 | 24.43005 | 54.64661 | 96 ft | 2 kts | 169° |
| 2026-04-27 11:38 | 24.43021 | 54.64657 | 96 ft | 2 kts | 168° |
| 2026-04-27 11:38 | 24.43037 | 54.64653 | 96 ft | 2 kts | 165° |
| 2026-04-27 11:39 | 24.43053 | 54.64649 | 96 ft | 2 kts | 160° |
| 2026-04-27 11:39 | 24.43067 | 54.64642 | 96 ft | 2 kts | 147° |
| 2026-04-27 11:39 | 24.43078 | 54.64632 | 96 ft | 2 kts | 115° |
| 2026-04-27 11:39 | 24.43082 | 54.64625 | 96 ft | 2 kts | 55° |
| 2026-04-27 11:40 | 24.43073 | 54.64616 | 96 ft | 2 kts | 38° |
| 2026-04-27 11:40 | 24.43069 | 54.64613 | 96 ft | 0 kts | 38° |
| 2026-04-27 11:43 | 24.43070 | 54.64614 | 96 ft | 1 kts | 38° |
| 2026-04-27 11:43 | 24.43089 | 54.64630 | 96 ft | 5 kts | 38° |
| 2026-04-27 11:43 | 24.43109 | 54.64673 | 96 ft | 8 kts | 116° |
| 2026-04-27 11:44 | 24.43065 | 54.64736 | 96 ft | 13 kts | 128° |
| 2026-04-27 11:44 | 24.43002 | 54.64823 | 96 ft | 16 kts | 128° |
| 2026-04-27 11:44 | 24.42925 | 54.64933 | 96 ft | 19 kts | 128° |
| 2026-04-27 11:44 | 24.42862 | 54.65027 | 96 ft | 14 kts | 110° |
| 2026-04-27 11:45 | 24.42917 | 54.65100 | 96 ft | 14 kts | 42° |
| 2026-04-27 11:45 | 24.42958 | 54.65160 | 96 ft | 16 kts | 69° |
| 2026-04-27 11:45 | 24.42915 | 54.65278 | 96 ft | 15 kts | 129° |
| 2026-04-27 11:45 | 24.42845 | 54.65376 | 96 ft | 18 kts | 128° |
| 2026-04-27 11:46 | 24.42762 | 54.65492 | 96 ft | 21 kts | 128° |
| 2026-04-27 11:46 | 24.42669 | 54.65624 | 96 ft | 20 kts | 128° |
| 2026-04-27 11:46 | 24.42577 | 54.65751 | 96 ft | 22 kts | 128° |
| 2026-04-27 11:46 | 24.42477 | 54.65893 | 96 ft | 25 kts | 127° |
| 2026-04-27 11:47 | 24.42371 | 54.66044 | 96 ft | 26 kts | 127° |
| 2026-04-27 11:47 | 24.42259 | 54.66204 | 96 ft | 27 kts | 127° |
| 2026-04-27 11:47 | 24.42140 | 54.66373 | 96 ft | 28 kts | 127° |
| 2026-04-27 11:47 | 24.42046 | 54.66507 | 96 ft | 9 kts | 127° |
| 2026-04-27 11:48 | 24.42041 | 54.66586 | 96 ft | 13 kts | 49° |
| 2026-04-27 11:48 | 24.42114 | 54.66653 | 96 ft | 15 kts | 38° |
| 2026-04-27 11:48 | 24.42192 | 54.66674 | 96 ft | 11 kts | 329° |
| 2026-04-27 11:48 | 24.42315 | 54.66505 | 96 ft | 58 kts | 308° |
| 2026-04-27 11:49 | 24.42699 | 54.65975 | 96 ft | 118 kts | 307° |
| 2026-04-27 11:49 | 24.43310 | 54.65106 | 111 ft | 167 kts | 307° |
| 2026-04-27 11:49 | 24.44081 | 54.64008 | 458 ft | 192 kts | 307° |
| 2026-04-27 11:49 | 24.44925 | 54.62798 | 1059 ft | 207 kts | 307° |
| 2026-04-27 11:50 | 24.45826 | 54.61490 | 1485 ft | 227 kts | 308° |
| 2026-04-27 11:50 | 24.46828 | 54.60091 | 2017 ft | 238 kts | 308° |
| 2026-04-27 11:50 | 24.47890 | 54.58612 | 2420 ft | 256 kts | 308° |
| 2026-04-27 11:50 | 24.48998 | 54.57062 | 3318 ft | 256 kts | 308° |
| 2026-04-27 11:51 | 24.50104 | 54.55514 | 4190 ft | 258 kts | 308° |
| 2026-04-27 11:51 | 24.51217 | 54.53954 | 4957 ft | 261 kts | 308° |
| 2026-04-27 11:51 | 24.53473 | 54.50778 | 6537 ft | 266 kts | 308° |
| 2026-04-27 11:52 | 24.54615 | 54.49166 | 7299 ft | 269 kts | 308° |
| 2026-04-27 11:52 | 24.55777 | 54.47522 | 7980 ft | 274 kts | 308° |
| 2026-04-27 11:52 | 24.56939 | 54.45878 | 8616 ft | 278 kts | 308° |
| 2026-04-27 11:52 | 24.58146 | 54.44170 | 8958 ft | 281 kts | 308° |
| 2026-04-27 11:53 | 24.59333 | 54.42489 | 9020 ft | 282 kts | 308° |
| 2026-04-27 11:53 | 24.60535 | 54.40784 | 9026 ft | 281 kts | 308° |
| 2026-04-27 11:53 | 24.61734 | 54.39095 | 9029 ft | 280 kts | 308° |
| 2026-04-27 11:53 | 24.62932 | 54.37403 | 9030 ft | 280 kts | 308° |
| 2026-04-27 11:54 | 24.64138 | 54.35706 | 9177 ft | 283 kts | 308° |
| 2026-04-27 11:54 | 24.65351 | 54.34002 | 9912 ft | 282 kts | 308° |
| 2026-04-27 11:54 | 24.66568 | 54.32289 | 10593 ft | 286 kts | 307° |
| 2026-04-27 11:54 | 24.67798 | 54.30555 | 11063 ft | 297 kts | 307° |
| 2026-04-27 11:55 | 24.69102 | 54.28714 | 11336 ft | 314 kts | 307° |
| 2026-04-27 11:55 | 24.70480 | 54.26764 | 11571 ft | 331 kts | 307° |
| 2026-04-27 11:55 | 24.71927 | 54.24716 | 11798 ft | 347 kts | 307° |
| 2026-04-27 11:55 | 24.73441 | 54.22569 | 12005 ft | 362 kts | 307° |
| 2026-04-27 11:56 | 24.75014 | 54.20338 | 12192 ft | 376 kts | 307° |
| 2026-04-27 11:56 | 24.76639 | 54.18031 | 12477 ft | 385 kts | 307° |
| 2026-04-27 11:56 | 24.78269 | 54.15717 | 13163 ft | 383 kts | 306° |
| 2026-04-27 11:56 | 24.79914 | 54.13382 | 13760 ft | 384 kts | 306° |
| 2026-04-27 11:57 | 24.81558 | 54.11048 | 14245 ft | 388 kts | 306° |
| 2026-04-27 11:57 | 24.83215 | 54.08691 | 14722 ft | 391 kts | 306° |
| 2026-04-27 11:57 | 24.84803 | 54.06242 | 15175 ft | 394 kts | 302° |
| 2026-04-27 11:57 | 24.86278 | 54.03686 | 15627 ft | 397 kts | 300° |
| 2026-04-27 11:58 | 24.87708 | 54.01079 | 16092 ft | 399 kts | 298° |
| 2026-04-27 11:58 | 24.89152 | 53.98442 | 16511 ft | 403 kts | 299° |
| 2026-04-27 11:58 | 24.90599 | 53.95816 | 16922 ft | 406 kts | 299° |
| 2026-04-27 11:58 | 24.92077 | 53.93148 | 17352 ft | 409 kts | 299° |
| 2026-04-27 11:59 | 24.93081 | 53.91341 | 17636 ft | 411 kts | 298° |
| 2026-04-27 11:59 | 24.94580 | 53.88648 | 18041 ft | 414 kts | 298° |
| 2026-04-27 11:59 | 24.96576 | 53.85066 | 18743 ft | 412 kts | 298° |
| 2026-04-27 11:59 | 24.97582 | 53.83261 | 19166 ft | 410 kts | 298° |
| 2026-04-27 12:00 | 24.99566 | 53.79707 | 19784 ft | 412 kts | 298° |
| 2026-04-27 12:00 | 25.01150 | 53.77052 | 20178 ft | 416 kts | 302° |
| 2026-04-27 12:00 | 25.02351 | 53.75346 | 20441 ft | 419 kts | 306° |
| 2026-04-27 12:00 | 25.04993 | 53.72221 | 20962 ft | 424 kts | 311° |
| 2026-04-27 12:01 | 25.06432 | 53.70675 | 21212 ft | 426 kts | 312° |
| 2026-04-27 12:01 | 25.08547 | 53.68444 | 21565 ft | 428 kts | 312° |
| 2026-04-27 12:01 | 25.10691 | 53.66168 | 21910 ft | 430 kts | 311° |
| 2026-04-27 12:01 | 25.12878 | 53.63833 | 22252 ft | 432 kts | 311° |
| 2026-04-27 12:02 | 25.15010 | 53.61550 | 22578 ft | 433 kts | 311° |
| 2026-04-27 12:02 | 25.17170 | 53.59231 | 22898 ft | 435 kts | 311° |
| 2026-04-27 12:02 | 25.19350 | 53.56887 | 23219 ft | 436 kts | 311° |
| 2026-04-27 12:02 | 25.21526 | 53.54545 | 23535 ft | 438 kts | 311° |
| 2026-04-27 12:03 | 25.23719 | 53.52184 | 23826 ft | 439 kts | 311° |
| 2026-04-27 12:03 | 25.25887 | 53.49850 | 24102 ft | 441 kts | 310° |
| 2026-04-27 12:03 | 25.28107 | 53.47458 | 24404 ft | 442 kts | 311° |
| 2026-04-27 12:03 | 25.30293 | 53.45115 | 24724 ft | 442 kts | 311° |
| 2026-04-27 12:04 | 25.32505 | 53.42738 | 25019 ft | 443 kts | 311° |
| 2026-04-27 12:04 | 25.34717 | 53.40359 | 25319 ft | 443 kts | 310° |
| 2026-04-27 12:04 | 25.36931 | 53.37978 | 25595 ft | 444 kts | 311° |
| 2026-04-27 12:04 | 25.39134 | 53.35598 | 25884 ft | 444 kts | 310° |
| 2026-04-27 12:05 | 25.41350 | 53.33193 | 26155 ft | 445 kts | 310° |
| 2026-04-27 12:05 | 25.43561 | 53.30789 | 26411 ft | 446 kts | 310° |
| 2026-04-27 12:05 | 25.45773 | 53.28381 | 26671 ft | 446 kts | 310° |
| 2026-04-27 12:05 | 25.47990 | 53.25967 | 26916 ft | 447 kts | 310° |
| 2026-04-27 12:06 | 25.50214 | 53.23544 | 27158 ft | 448 kts | 311° |
| 2026-04-27 12:06 | 25.52458 | 53.21122 | 27417 ft | 448 kts | 310° |
| 2026-04-27 12:06 | 25.54686 | 53.18711 | 27655 ft | 449 kts | 310° |
| 2026-04-27 12:06 | 25.56881 | 53.16329 | 27993 ft | 446 kts | 310° |
| 2026-04-27 12:07 | 25.59089 | 53.13930 | 28380 ft | 443 kts | 310° |
| 2026-04-27 12:07 | 25.61290 | 53.11536 | 28755 ft | 441 kts | 310° |
| 2026-04-27 12:07 | 25.63468 | 53.09165 | 29129 ft | 438 kts | 310° |
| 2026-04-27 12:07 | 25.65639 | 53.06799 | 29496 ft | 436 kts | 310° |
| 2026-04-27 12:08 | 25.67777 | 53.04428 | 29945 ft | 430 kts | 308° |
| 2026-04-27 12:08 | 25.69693 | 53.01915 | 30262 ft | 426 kts | 303° |
| 2026-04-27 12:08 | 25.71367 | 52.99198 | 30571 ft | 422 kts | 298° |
| 2026-04-27 12:08 | 25.72840 | 52.96406 | 30991 ft | 418 kts | 296° |
| 2026-04-27 12:09 | 25.74221 | 52.93573 | 31293 ft | 416 kts | 295° |
| 2026-04-27 12:09 | 25.75565 | 52.90774 | 31631 ft | 414 kts | 295° |
| 2026-04-27 12:09 | 25.76914 | 52.87954 | 31969 ft | 412 kts | 295° |
| 2026-04-27 12:09 | 25.78246 | 52.85152 | 32277 ft | 411 kts | 294° |
| 2026-04-27 12:10 | 25.79578 | 52.82340 | 32511 ft | 411 kts | 294° |
| 2026-04-27 12:10 | 25.80906 | 52.79528 | 32811 ft | 409 kts | 294° |
| 2026-04-27 12:10 | 25.82221 | 52.76737 | 33119 ft | 407 kts | 294° |
| 2026-04-27 12:10 | 25.83534 | 52.73945 | 33409 ft | 406 kts | 294° |
| 2026-04-27 12:11 | 25.84818 | 52.71215 | 33732 ft | 403 kts | 294° |
| 2026-04-27 12:11 | 25.87423 | 52.65666 | 33779 ft | 404 kts | 294° |
| 2026-04-27 12:12 | 25.90004 | 52.60158 | 33788 ft | 401 kts | 294° |
| 2026-04-27 12:12 | 25.92487 | 52.54590 | 33789 ft | 401 kts | 293° |
| 2026-04-27 12:13 | 25.94948 | 52.49033 | 33790 ft | 401 kts | 293° |
| 2026-04-27 12:13 | 25.97410 | 52.43471 | 33790 ft | 400 kts | 293° |
| 2026-04-27 12:14 | 25.99862 | 52.37945 | 33791 ft | 401 kts | 292° |
| 2026-04-27 12:14 | 26.02338 | 52.32379 | 33791 ft | 402 kts | 292° |
| 2026-04-27 12:15 | 26.04834 | 52.26802 | 33791 ft | 402 kts | 292° |
| 2026-04-27 12:15 | 26.07314 | 52.21224 | 33792 ft | 402 kts | 292° |
| 2026-04-27 12:16 | 26.09786 | 52.15642 | 33792 ft | 401 kts | 292° |
| 2026-04-27 12:16 | 26.12237 | 52.10096 | 33793 ft | 402 kts | 292° |
| 2026-04-27 12:17 | 26.14705 | 52.04505 | 33794 ft | 402 kts | 292° |
| 2026-04-27 12:17 | 26.17166 | 51.98931 | 33795 ft | 402 kts | 293° |
| 2026-04-27 12:18 | 26.19679 | 51.93379 | 33795 ft | 400 kts | 293° |
| 2026-04-27 12:18 | 26.22138 | 51.87831 | 33796 ft | 400 kts | 292° |
| 2026-04-27 12:19 | 26.24584 | 51.82299 | 33796 ft | 400 kts | 292° |
| 2026-04-27 12:19 | 26.27059 | 51.76748 | 33797 ft | 400 kts | 292° |
| 2026-04-27 12:20 | 26.29541 | 51.71180 | 33786 ft | 400 kts | 292° |
| 2026-04-27 12:20 | 26.32016 | 51.65659 | 33783 ft | 400 kts | 294° |
| 2026-04-27 12:21 | 26.34500 | 51.60080 | 33795 ft | 400 kts | 292° |
| 2026-04-27 12:21 | 26.36953 | 51.54521 | 33798 ft | 400 kts | 292° |
| 2026-04-27 12:22 | 26.39065 | 51.48807 | 33799 ft | 397 kts | 286° |
| 2026-04-27 12:22 | 26.40868 | 51.43016 | 33799 ft | 396 kts | 287° |
| 2026-04-27 12:23 | 26.42693 | 51.37242 | 33800 ft | 396 kts | 287° |
| 2026-04-27 12:23 | 26.44578 | 51.31465 | 33801 ft | 396 kts | 287° |
| 2026-04-27 12:24 | 26.46462 | 51.25673 | 33802 ft | 396 kts | 287° |
| 2026-04-27 12:24 | 26.48319 | 51.19888 | 33806 ft | 396 kts | 287° |
| 2026-04-27 12:25 | 26.50160 | 51.14102 | 33813 ft | 396 kts | 286° |
| 2026-04-27 12:25 | 26.51998 | 51.08301 | 33803 ft | 396 kts | 286° |
| 2026-04-27 12:26 | 26.53830 | 51.02500 | 33791 ft | 396 kts | 286° |
| 2026-04-27 12:26 | 26.55649 | 50.96737 | 33789 ft | 396 kts | 286° |
| 2026-04-27 12:27 | 26.57475 | 50.90938 | 33789 ft | 395 kts | 285° |
| 2026-04-27 12:27 | 26.59265 | 50.85137 | 33789 ft | 395 kts | 285° |
| 2026-04-27 12:28 | 26.61045 | 50.79329 | 33788 ft | 395 kts | 285° |
| 2026-04-27 12:28 | 26.62814 | 50.73542 | 33787 ft | 395 kts | 285° |
| 2026-04-27 12:29 | 26.64593 | 50.67693 | 33787 ft | 395 kts | 285° |
| 2026-04-27 12:29 | 26.66325 | 50.61896 | 33786 ft | 395 kts | 285° |
| 2026-04-27 12:30 | 26.68057 | 50.56066 | 33778 ft | 395 kts | 285° |
| 2026-04-27 12:30 | 26.69788 | 50.50234 | 33776 ft | 395 kts | 284° |
| 2026-04-27 12:31 | 26.71404 | 50.44386 | 33775 ft | 393 kts | 282° |
| 2026-04-27 12:31 | 26.72914 | 50.38496 | 33773 ft | 393 kts | 283° |
| 2026-04-27 12:32 | 26.74431 | 50.32609 | 33772 ft | 393 kts | 283° |
| 2026-04-27 12:32 | 26.75943 | 50.26771 | 33771 ft | 394 kts | 283° |
| 2026-04-27 12:33 | 26.77679 | 50.20934 | 33770 ft | 395 kts | 285° |
| 2026-04-27 12:33 | 26.79433 | 50.15117 | 33768 ft | 395 kts | 284° |
| 2026-04-27 12:34 | 26.81171 | 50.09276 | 33762 ft | 395 kts | 284° |
| 2026-04-27 12:34 | 26.82900 | 50.03446 | 33758 ft | 395 kts | 284° |
| 2026-04-27 12:35 | 26.84629 | 49.97608 | 33758 ft | 395 kts | 284° |
| 2026-04-27 12:35 | 26.86356 | 49.91763 | 33758 ft | 394 kts | 284° |
| 2026-04-27 12:36 | 26.88075 | 49.85927 | 33758 ft | 394 kts | 284° |
| 2026-04-27 12:36 | 26.89783 | 49.80119 | 33758 ft | 394 kts | 284° |
| 2026-04-27 12:37 | 26.91506 | 49.74284 | 33761 ft | 395 kts | 284° |
| 2026-04-27 12:37 | 26.93248 | 49.68425 | 33761 ft | 394 kts | 284° |
| 2026-04-27 12:38 | 26.94963 | 49.62593 | 33761 ft | 394 kts | 284° |
| 2026-04-27 12:38 | 26.96676 | 49.56735 | 33764 ft | 394 kts | 284° |
| 2026-04-27 12:39 | 26.98370 | 49.50922 | 33765 ft | 394 kts | 284° |
| 2026-04-27 12:39 | 27.00072 | 49.45082 | 33767 ft | 394 kts | 284° |
| 2026-04-27 12:40 | 27.02183 | 49.39361 | 33768 ft | 400 kts | 292° |
| 2026-04-27 12:40 | 27.04872 | 49.33906 | 33768 ft | 400 kts | 293° |
| 2026-04-27 12:41 | 27.07618 | 49.28463 | 33770 ft | 401 kts | 293° |
| 2026-04-27 12:41 | 27.10362 | 49.23010 | 33771 ft | 401 kts | 293° |
| 2026-04-27 12:42 | 27.13100 | 49.17541 | 33770 ft | 401 kts | 293° |
| 2026-04-27 12:42 | 27.15833 | 49.12070 | 33768 ft | 401 kts | 293° |
| 2026-04-27 12:43 | 27.18543 | 49.06636 | 33768 ft | 401 kts | 293° |
| 2026-04-27 12:43 | 27.20824 | 49.02063 | 33769 ft | 402 kts | 293° |
| 2026-04-27 12:44 | 27.23560 | 48.96586 | 33770 ft | 402 kts | 293° |
| 2026-04-27 12:44 | 27.26746 | 48.90208 | 33771 ft | 402 kts | 293° |
| 2026-04-27 12:45 | 27.29014 | 48.85656 | 33772 ft | 401 kts | 293° |
| 2026-04-27 12:45 | 27.31746 | 48.80167 | 33773 ft | 402 kts | 292° |
| 2026-04-27 12:46 | 27.34475 | 48.74676 | 33773 ft | 401 kts | 292° |
| 2026-04-27 12:46 | 27.37200 | 48.69185 | 33774 ft | 401 kts | 292° |
| 2026-04-27 12:47 | 27.39921 | 48.63725 | 33775 ft | 402 kts | 292° |
| 2026-04-27 12:47 | 27.42666 | 48.58229 | 33776 ft | 402 kts | 293° |
| 2026-04-27 12:48 | 27.45406 | 48.52730 | 33776 ft | 402 kts | 292° |
| 2026-04-27 12:48 | 27.48129 | 48.47231 | 33777 ft | 402 kts | 292° |
| 2026-04-27 12:49 | 27.50849 | 48.41719 | 33777 ft | 403 kts | 292° |
| 2026-04-27 12:49 | 27.53566 | 48.36200 | 33778 ft | 402 kts | 292° |
| 2026-04-27 12:50 | 27.56257 | 48.30735 | 33778 ft | 402 kts | 292° |
| 2026-04-27 12:50 | 27.58975 | 48.25219 | 33778 ft | 402 kts | 292° |
| 2026-04-27 12:51 | 27.61220 | 48.20648 | 33769 ft | 401 kts | 292° |
| 2026-04-27 12:51 | 27.64377 | 48.14195 | 33764 ft | 402 kts | 292° |
| 2026-04-27 12:52 | 27.67080 | 48.08658 | 33764 ft | 402 kts | 292° |
| 2026-04-27 12:52 | 27.69765 | 48.03161 | 33763 ft | 402 kts | 292° |
| 2026-04-27 12:53 | 27.73844 | 47.94835 | 33763 ft | 402 kts | 292° |
| 2026-04-27 12:53 | 27.76521 | 47.89337 | 33763 ft | 402 kts | 292° |
| 2026-04-27 12:54 | 27.79222 | 47.83774 | 33762 ft | 402 kts | 292° |
| 2026-04-27 12:54 | 27.81902 | 47.78249 | 33762 ft | 402 kts | 292° |
| 2026-04-27 12:55 | 27.84420 | 47.72670 | 33762 ft | 397 kts | 286° |
| 2026-04-27 12:55 | 27.86310 | 47.66824 | 33762 ft | 395 kts | 284° |
| 2026-04-27 12:56 | 27.88118 | 47.60970 | 33761 ft | 394 kts | 284° |
| 2026-04-27 12:56 | 27.89928 | 47.55096 | 33761 ft | 395 kts | 284° |
| 2026-04-27 12:57 | 27.91735 | 47.49218 | 33761 ft | 395 kts | 284° |
| 2026-04-27 12:57 | 27.93537 | 47.43346 | 33761 ft | 395 kts | 284° |
| 2026-04-27 12:58 | 27.95330 | 47.37499 | 33760 ft | 395 kts | 284° |
| 2026-04-27 12:58 | 27.97147 | 47.31626 | 33760 ft | 396 kts | 284° |
| 2026-04-27 12:59 | 27.98958 | 47.25748 | 33760 ft | 396 kts | 284° |
| 2026-04-27 12:59 | 28.00771 | 47.19875 | 33760 ft | 395 kts | 284° |
| 2026-04-27 13:00 | 28.02576 | 47.13994 | 33760 ft | 396 kts | 283° |
| 2026-04-27 13:00 | 28.04377 | 47.08086 | 33760 ft | 396 kts | 283° |
| 2026-04-27 13:01 | 28.06162 | 47.02205 | 33759 ft | 396 kts | 283° |
| 2026-04-27 13:01 | 28.07955 | 46.96284 | 33762 ft | 396 kts | 283° |
| 2026-04-27 13:02 | 28.09743 | 46.90377 | 33761 ft | 396 kts | 283° |
| 2026-04-27 13:02 | 28.11602 | 46.84500 | 33760 ft | 398 kts | 285° |
| 2026-04-27 13:03 | 28.13562 | 46.78666 | 33760 ft | 398 kts | 285° |
| 2026-04-27 13:03 | 28.15517 | 46.72807 | 33760 ft | 398 kts | 285° |
| 2026-04-27 13:04 | 28.17472 | 46.66924 | 33761 ft | 398 kts | 285° |
| 2026-04-27 13:04 | 28.19418 | 46.61054 | 33760 ft | 398 kts | 285° |
| 2026-04-27 13:05 | 28.21361 | 46.55179 | 33760 ft | 399 kts | 285° |
| 2026-04-27 13:05 | 28.23319 | 46.49282 | 33759 ft | 399 kts | 285° |
| 2026-04-27 13:06 | 28.25273 | 46.43436 | 33759 ft | 399 kts | 285° |
| 2026-04-27 13:06 | 28.27228 | 46.37552 | 33758 ft | 399 kts | 285° |
| 2026-04-27 13:07 | 28.29170 | 46.31658 | 33758 ft | 399 kts | 285° |
| 2026-04-27 13:07 | 28.31106 | 46.25752 | 33758 ft | 400 kts | 285° |
| 2026-04-27 13:08 | 28.33045 | 46.19825 | 33758 ft | 400 kts | 285° |
| 2026-04-27 13:08 | 28.34988 | 46.13885 | 33758 ft | 400 kts | 285° |
| 2026-04-27 13:09 | 28.37009 | 46.08021 | 33758 ft | 402 kts | 287° |
| 2026-04-27 13:09 | 28.39207 | 46.02181 | 33752 ft | 402 kts | 287° |
| 2026-04-27 13:10 | 28.41393 | 45.96338 | 33736 ft | 401 kts | 288° |
| 2026-04-27 13:10 | 28.43558 | 45.90519 | 33729 ft | 399 kts | 288° |
| 2026-04-27 13:11 | 28.45712 | 45.84708 | 33729 ft | 399 kts | 288° |
| 2026-04-27 13:11 | 28.47867 | 45.78879 | 33729 ft | 399 kts | 288° |
| 2026-04-27 13:12 | 28.50027 | 45.73055 | 33730 ft | 400 kts | 288° |
| 2026-04-27 13:12 | 28.52181 | 45.67262 | 33730 ft | 400 kts | 288° |
| 2026-04-27 13:13 | 28.54337 | 45.61437 | 33731 ft | 400 kts | 288° |
| 2026-04-27 13:13 | 28.56497 | 45.55583 | 33731 ft | 400 kts | 288° |
| 2026-04-27 13:14 | 28.58645 | 45.49745 | 33732 ft | 400 kts | 288° |
| 2026-04-27 13:14 | 28.60791 | 45.43899 | 33732 ft | 400 kts | 288° |
| 2026-04-27 13:15 | 28.62926 | 45.38076 | 33733 ft | 401 kts | 288° |
| 2026-04-27 13:15 | 28.65067 | 45.32222 | 33733 ft | 401 kts | 288° |
| 2026-04-27 13:16 | 28.67213 | 45.26348 | 33734 ft | 402 kts | 287° |
| 2026-04-27 13:16 | 28.69362 | 45.20454 | 33734 ft | 402 kts | 287° |
| 2026-04-27 13:17 | 28.71512 | 45.14548 | 33735 ft | 402 kts | 287° |
| 2026-04-27 13:17 | 28.73640 | 45.08696 | 33735 ft | 403 kts | 287° |
| 2026-04-27 13:18 | 28.75796 | 45.02800 | 33736 ft | 403 kts | 287° |
| 2026-04-27 13:18 | 28.77937 | 44.96896 | 33736 ft | 403 kts | 287° |
| 2026-04-27 13:19 | 28.80069 | 44.90989 | 33737 ft | 403 kts | 287° |
| 2026-04-27 13:19 | 28.82200 | 44.85070 | 33737 ft | 403 kts | 287° |
| 2026-04-27 13:20 | 28.84333 | 44.79139 | 33737 ft | 403 kts | 287° |
| 2026-04-27 13:20 | 28.85876 | 44.73047 | 33737 ft | 397 kts | 276° |
| 2026-04-27 13:21 | 28.86551 | 44.66854 | 33737 ft | 395 kts | 272° |
| 2026-04-27 13:21 | 28.87078 | 44.60609 | 33737 ft | 395 kts | 272° |
| 2026-04-27 13:22 | 28.87587 | 44.54367 | 33737 ft | 396 kts | 272° |
| 2026-04-27 13:22 | 28.88089 | 44.48096 | 33737 ft | 396 kts | 272° |
| 2026-04-27 13:23 | 28.88582 | 44.41835 | 33765 ft | 398 kts | 272° |
| 2026-04-27 13:23 | 28.88828 | 44.38689 | 33968 ft | 398 kts | 272° |
| 2026-04-27 13:23 | 28.89073 | 44.35543 | 34386 ft | 395 kts | 272° |
| 2026-04-27 13:24 | 28.89328 | 44.32434 | 34668 ft | 394 kts | 272° |
| 2026-04-27 13:24 | 28.89579 | 44.29318 | 34928 ft | 394 kts | 272° |
| 2026-04-27 13:24 | 28.89828 | 44.26210 | 35226 ft | 392 kts | 271° |
| 2026-04-27 13:24 | 28.90069 | 44.23158 | 35502 ft | 391 kts | 271° |
| 2026-04-27 13:25 | 28.90312 | 44.20071 | 35721 ft | 391 kts | 271° |
| 2026-04-27 13:25 | 28.90553 | 44.16980 | 35725 ft | 392 kts | 271° |
| 2026-04-27 13:25 | 28.91031 | 44.10798 | 35735 ft | 389 kts | 271° |
| 2026-04-27 13:26 | 28.91503 | 44.04649 | 35737 ft | 389 kts | 271° |
| 2026-04-27 13:26 | 28.91973 | 43.98470 | 35738 ft | 390 kts | 271° |
| 2026-04-27 13:27 | 28.92434 | 43.92370 | 35736 ft | 386 kts | 271° |
| 2026-04-27 13:27 | 28.92906 | 43.86228 | 35736 ft | 387 kts | 271° |
| 2026-04-27 13:28 | 28.93372 | 43.80104 | 35737 ft | 387 kts | 271° |
| 2026-04-27 13:28 | 28.93822 | 43.74017 | 35740 ft | 387 kts | 271° |
| 2026-04-27 13:29 | 28.94197 | 43.68879 | 35740 ft | 387 kts | 271° |
| 2026-04-27 13:29 | 28.94491 | 43.64820 | 35740 ft | 387 kts | 271° |